עמוד ראשי
METAR-TAF:

METAR-TAF

שדות תעופה :

בגדאד, עיראק

קו רוחב: 33-15-45N, קו אורך: 44-14-04E, גובה: 35מטר

תצפית מזג אוויר נוכחית

הדו"ח נערך לפני 54דקות, בשעה 23:00 UTC
רוח 9קשר מכיוון מערב/צפון-מערב
טמפרטורת 36 צלסיוס
לחות 22%
לחץ 996 hPa
ראות 10 קילומטר או יותר
ללא עננים שבסיסם נמוך מ 5000 רגל או קומולונימבוס

METAR: ORBI 222300Z 29009KT CAVOK 36/11 Q0996 NOSIG

זמן: 02:54 (23:54 UTC)

תחזית

הדו"ח נערך לפני 1 שעות ו 24דקות, בשעה 22:30 UTC
תחזית בתוקף מ 23 ב 00 UTC עד 23 ב 24 UTC
רוח 6קשר מכיוון מערב
ראות 10 קילומטר או יותר
ללא עננים שבסיסם נמוך מ 5000 רגל או קומולונימבוס
יעשה מ
23 ב 05 UTC עד 23 ב 07 UTC
רוח 14קשר מכיוון צפון/צפון-מערב
ראות: 7000מטר
יעשה מ
23 ב 11 UTC עד 23 ב 13 UTC
רוח 7קשר מכיוון מערב/דרום-מערב

TAF: ORBI 222230Z 2300/2324 27006KT CAVOK BECMG 2305/2307 33014KT 7000 NSC BECMG 2311/2313 25007KT

תצפיות ותחזיות מזג אוויר לגבי יותר מ- 4,000 שדות תעופה ברחבי העולם. דוחות METAR ו- TAF.

התחנות הזמינות מסומנות בנקודות צהובות ואדומות על גבי המפה.

העבר את העכבר לנקודה הצבעונית על מנת לראות את שם התחנה.

לאחר מכן, לחץ כדי לראות את תוכן ואת תחזיות מזג האוויר.

כדי לשנות את המפה: לחץ על הכפתורים הירוקים עם הפלוס השחור כדי להתקרב; על הכפתור הירוק עם המקף כדי להתרחק; או בחיצים הירוקים למפות סמוכות.


METAR-TAF: